FRS28 EDLS-EDWX
Flight info
| Callsign | FRS28 |
|---|---|
| Flight time | 0h 29m |
| Altitude | 2000 |
| Route | DIRECT |
| Aircraft | IMPU/L-V/N |
Departure
| Time | 2026-04-14 13:42 |
|---|---|
| Airport | Stadtlohn-Vreden Airfield (EDLS) |
Arrival
| Time | 2026-04-14 14:12 |
|---|---|
| Airport | Westerstede-Felde Airfield (EDWX) |
| Time | Latitude | Longitude | Altitude | Speed | Heading |
|---|---|---|---|---|---|
| 2026-04-14 13:39 | 51.99598 | 6.84753 | 162 ft | 0 kts | 197° |
| 2026-04-14 13:39 | 51.99590 | 6.84751 | 159 ft | 3 kts | 140° |
| 2026-04-14 13:40 | 51.99543 | 6.84769 | 159 ft | 13 kts | 195° |
| 2026-04-14 13:40 | 51.99496 | 6.84750 | 159 ft | 0 kts | 192° |
| 2026-04-14 13:41 | 51.99467 | 6.84733 | 159 ft | 1 kts | 244° |
| 2026-04-14 13:41 | 51.99466 | 6.84701 | 159 ft | 0 kts | 285° |
| 2026-04-14 13:42 | 51.99470 | 6.84671 | 159 ft | 31 kts | 284° |
| 2026-04-14 13:42 | 51.99648 | 6.83715 | 367 ft | 128 kts | 298° |
| 2026-04-14 13:42 | 52.00492 | 6.83558 | 1307 ft | 158 kts | 33° |
| 2026-04-14 13:43 | 52.01302 | 6.85058 | 1610 ft | 195 kts | 55° |
| 2026-04-14 13:43 | 52.02218 | 6.86790 | 1698 ft | 210 kts | 40° |
| 2026-04-14 13:43 | 52.03367 | 6.88285 | 1845 ft | 211 kts | 38° |
| 2026-04-14 13:43 | 52.04502 | 6.89804 | 1997 ft | 211 kts | 38° |
| 2026-04-14 13:44 | 52.05650 | 6.91334 | 1998 ft | 218 kts | 38° |
| 2026-04-14 13:44 | 52.06834 | 6.92908 | 1997 ft | 220 kts | 38° |
| 2026-04-14 13:44 | 52.08019 | 6.94512 | 1997 ft | 220 kts | 38° |
| 2026-04-14 13:44 | 52.09186 | 6.96098 | 1996 ft | 220 kts | 38° |
| 2026-04-14 13:45 | 52.10366 | 6.97694 | 2001 ft | 219 kts | 38° |
| 2026-04-14 13:45 | 52.11536 | 6.99273 | 2002 ft | 221 kts | 38° |
| 2026-04-14 13:45 | 52.12717 | 7.00869 | 1991 ft | 221 kts | 39° |
| 2026-04-14 13:45 | 52.13889 | 7.02452 | 2003 ft | 219 kts | 39° |
| 2026-04-14 13:46 | 52.15073 | 7.04038 | 1991 ft | 220 kts | 38° |
| 2026-04-14 13:46 | 52.16246 | 7.05629 | 2004 ft | 219 kts | 39° |
| 2026-04-14 13:46 | 52.17264 | 7.06995 | 1995 ft | 220 kts | 38° |
| 2026-04-14 13:46 | 52.18337 | 7.08433 | 1997 ft | 218 kts | 37° |
| 2026-04-14 13:47 | 52.19506 | 7.10013 | 1990 ft | 216 kts | 38° |
| 2026-04-14 13:47 | 52.20666 | 7.11554 | 1989 ft | 216 kts | 37° |
| 2026-04-14 13:47 | 52.21860 | 7.13048 | 1988 ft | 214 kts | 28° |
| 2026-04-14 13:47 | 52.23177 | 7.14123 | 2002 ft | 213 kts | 22° |
| 2026-04-14 13:48 | 52.24525 | 7.15175 | 1995 ft | 214 kts | 22° |
| 2026-04-14 13:48 | 52.25868 | 7.16208 | 2009 ft | 215 kts | 23° |
| 2026-04-14 13:48 | 52.27235 | 7.17242 | 2001 ft | 215 kts | 23° |
| 2026-04-14 13:48 | 52.28591 | 7.18294 | 2002 ft | 215 kts | 24° |
| 2026-04-14 13:49 | 52.29936 | 7.19338 | 2007 ft | 216 kts | 22° |
| 2026-04-14 13:49 | 52.31301 | 7.20381 | 1989 ft | 215 kts | 23° |
| 2026-04-14 13:49 | 52.32662 | 7.21425 | 2000 ft | 215 kts | 23° |
| 2026-04-14 13:49 | 52.34013 | 7.22448 | 1996 ft | 216 kts | 23° |
| 2026-04-14 13:50 | 52.35377 | 7.23501 | 1995 ft | 214 kts | 24° |
| 2026-04-14 13:50 | 52.36706 | 7.24540 | 1993 ft | 213 kts | 23° |
| 2026-04-14 13:50 | 52.38068 | 7.25583 | 1992 ft | 217 kts | 24° |
| 2026-04-14 13:50 | 52.39442 | 7.26624 | 1995 ft | 213 kts | 24° |
| 2026-04-14 13:51 | 52.40760 | 7.27641 | 1992 ft | 210 kts | 23° |
| 2026-04-14 13:51 | 52.42078 | 7.28643 | 1985 ft | 207 kts | 22° |
| 2026-04-14 13:51 | 52.43376 | 7.29657 | 2016 ft | 207 kts | 24° |
| 2026-04-14 13:51 | 52.44698 | 7.30664 | 2007 ft | 209 kts | 21° |
| 2026-04-14 13:52 | 52.46017 | 7.31655 | 1989 ft | 206 kts | 23° |
| 2026-04-14 13:52 | 52.47301 | 7.32646 | 1992 ft | 207 kts | 23° |
| 2026-04-14 13:52 | 52.48625 | 7.33561 | 2018 ft | 206 kts | 18° |
| 2026-04-14 13:52 | 52.49972 | 7.34381 | 1992 ft | 204 kts | 18° |
| 2026-04-14 13:53 | 52.51291 | 7.35185 | 2003 ft | 203 kts | 18° |
| 2026-04-14 13:53 | 52.52637 | 7.36007 | 2000 ft | 207 kts | 17° |
| 2026-04-14 13:53 | 52.53992 | 7.36833 | 2003 ft | 205 kts | 19° |
| 2026-04-14 13:53 | 52.55320 | 7.37629 | 1996 ft | 206 kts | 18° |
| 2026-04-14 13:54 | 52.56667 | 7.38440 | 1994 ft | 206 kts | 19° |
| 2026-04-14 13:54 | 52.58021 | 7.39250 | 1986 ft | 208 kts | 18° |
| 2026-04-14 13:54 | 52.59371 | 7.40068 | 1995 ft | 206 kts | 19° |
| 2026-04-14 13:54 | 52.60708 | 7.40864 | 2007 ft | 207 kts | 18° |
| 2026-04-14 13:55 | 52.62056 | 7.41748 | 1996 ft | 207 kts | 22° |
| 2026-04-14 13:55 | 52.63382 | 7.42760 | 1991 ft | 209 kts | 23° |
| 2026-04-14 13:55 | 52.64691 | 7.43773 | 1995 ft | 208 kts | 22° |
| 2026-04-14 13:55 | 52.65983 | 7.44825 | 2024 ft | 206 kts | 24° |
| 2026-04-14 13:56 | 52.67262 | 7.45856 | 1999 ft | 204 kts | 23° |
| 2026-04-14 13:56 | 52.68530 | 7.46876 | 1998 ft | 203 kts | 23° |
| 2026-04-14 13:56 | 52.69809 | 7.47911 | 1991 ft | 210 kts | 23° |
| 2026-04-14 13:56 | 52.71139 | 7.48976 | 1992 ft | 212 kts | 24° |
| 2026-04-14 13:57 | 52.72461 | 7.50023 | 1995 ft | 213 kts | 22° |
| 2026-04-14 13:57 | 52.73815 | 7.51112 | 2019 ft | 216 kts | 25° |
| 2026-04-14 13:57 | 52.75170 | 7.52223 | 1992 ft | 218 kts | 24° |
| 2026-04-14 13:57 | 52.76525 | 7.53320 | 1988 ft | 219 kts | 25° |
| 2026-04-14 13:58 | 52.77891 | 7.54448 | 1996 ft | 219 kts | 25° |
| 2026-04-14 13:58 | 52.79272 | 7.55554 | 1994 ft | 219 kts | 24° |
| 2026-04-14 13:58 | 52.80629 | 7.56647 | 1999 ft | 219 kts | 25° |
| 2026-04-14 13:58 | 52.81998 | 7.57761 | 1999 ft | 221 kts | 24° |
| 2026-04-14 13:59 | 52.83383 | 7.58879 | 2000 ft | 221 kts | 24° |
| 2026-04-14 13:59 | 52.84766 | 7.60027 | 1989 ft | 220 kts | 24° |
| 2026-04-14 13:59 | 52.86134 | 7.61135 | 1995 ft | 221 kts | 25° |
| 2026-04-14 13:59 | 52.87527 | 7.62264 | 1994 ft | 221 kts | 24° |
| 2026-04-14 14:00 | 52.88894 | 7.63368 | 1991 ft | 220 kts | 24° |
| 2026-04-14 14:00 | 52.90271 | 7.64490 | 1983 ft | 219 kts | 24° |
| 2026-04-14 14:00 | 52.91637 | 7.65603 | 1980 ft | 218 kts | 25° |
| 2026-04-14 14:00 | 52.92994 | 7.66727 | 2103 ft | 212 kts | 25° |
| 2026-04-14 14:01 | 52.94179 | 7.67884 | 2756 ft | 190 kts | 30° |
| 2026-04-14 14:01 | 52.95278 | 7.68909 | 3639 ft | 131 kts | 20° |
| 2026-04-14 14:01 | 52.96293 | 7.69638 | 3861 ft | 189 kts | 22° |
| 2026-04-14 14:01 | 52.97568 | 7.70687 | 3591 ft | 217 kts | 26° |
| 2026-04-14 14:02 | 52.98764 | 7.72066 | 3719 ft | 204 kts | 38° |
| 2026-04-14 14:02 | 52.99951 | 7.73394 | 3589 ft | 207 kts | 27° |
| 2026-04-14 14:02 | 53.01231 | 7.74585 | 3495 ft | 211 kts | 27° |
| 2026-04-14 14:02 | 53.02485 | 7.75752 | 3699 ft | 202 kts | 27° |
| 2026-04-14 14:03 | 53.03688 | 7.76877 | 3802 ft | 202 kts | 27° |
| 2026-04-14 14:03 | 53.04971 | 7.78054 | 3550 ft | 215 kts | 27° |
| 2026-04-14 14:03 | 53.06279 | 7.79278 | 3286 ft | 219 kts | 28° |
| 2026-04-14 14:03 | 53.07620 | 7.80543 | 3033 ft | 222 kts | 28° |
| 2026-04-14 14:04 | 53.08955 | 7.81789 | 2780 ft | 219 kts | 27° |
| 2026-04-14 14:04 | 53.10278 | 7.83033 | 2529 ft | 216 kts | 27° |
| 2026-04-14 14:04 | 53.11606 | 7.84241 | 2263 ft | 215 kts | 26° |
| 2026-04-14 14:04 | 53.12907 | 7.85426 | 2022 ft | 214 kts | 27° |
| 2026-04-14 14:05 | 53.14186 | 7.86614 | 1993 ft | 209 kts | 26° |
| 2026-04-14 14:05 | 53.15449 | 7.87761 | 1959 ft | 205 kts | 25° |
| 2026-04-14 14:05 | 53.16688 | 7.88905 | 1839 ft | 205 kts | 26° |
| 2026-04-14 14:05 | 53.17971 | 7.90087 | 1707 ft | 214 kts | 27° |
| 2026-04-14 14:06 | 53.19269 | 7.91279 | 1582 ft | 216 kts | 26° |
| 2026-04-14 14:06 | 53.20585 | 7.92489 | 1462 ft | 213 kts | 26° |
| 2026-04-14 14:06 | 53.21879 | 7.93661 | 1329 ft | 209 kts | 26° |
| 2026-04-14 14:06 | 53.23112 | 7.94789 | 1186 ft | 196 kts | 27° |
| 2026-04-14 14:07 | 53.24333 | 7.95905 | 1048 ft | 207 kts | 26° |
| 2026-04-14 14:07 | 53.25591 | 7.97045 | 1014 ft | 202 kts | 25° |
| 2026-04-14 14:07 | 53.26774 | 7.98139 | 1218 ft | 184 kts | 26° |
| 2026-04-14 14:07 | 53.27900 | 7.99134 | 1075 ft | 186 kts | 24° |
| 2026-04-14 14:08 | 53.29049 | 8.00110 | 1015 ft | 186 kts | 24° |
| 2026-04-14 14:08 | 53.30188 | 8.01079 | 1007 ft | 171 kts | 24° |
| 2026-04-14 14:08 | 53.31193 | 8.01728 | 953 ft | 138 kts | 339° |
| 2026-04-14 14:08 | 53.31324 | 8.00501 | 798 ft | 124 kts | 240° |
| 2026-04-14 14:09 | 53.30889 | 7.99311 | 822 ft | 112 kts | 244° |
| 2026-04-14 14:09 | 53.30540 | 7.98269 | 892 ft | 97 kts | 242° |
| 2026-04-14 14:09 | 53.30148 | 7.97393 | 870 ft | 93 kts | 234° |
| 2026-04-14 14:09 | 53.29757 | 7.96614 | 810 ft | 72 kts | 237° |
| 2026-04-14 14:10 | 53.29684 | 7.95872 | 602 ft | 74 kts | 268° |
| 2026-04-14 14:10 | 53.29347 | 7.95104 | 460 ft | 117 kts | 199° |
| 2026-04-14 14:10 | 53.28577 | 7.95550 | 612 ft | 129 kts | 118° |
| 2026-04-14 14:10 | 53.28693 | 7.96940 | 781 ft | 123 kts | 44° |
| 2026-04-14 14:11 | 53.29407 | 7.97214 | 813 ft | 89 kts | 320° |
| 2026-04-14 14:11 | 53.29436 | 7.96466 | 584 ft | 69 kts | 234° |
| 2026-04-14 14:11 | 53.29320 | 7.95853 | 488 ft | 62 kts | 286° |
| 2026-04-14 14:11 | 53.29330 | 7.95126 | 325 ft | 60 kts | 262° |
| 2026-04-14 14:12 | 53.29213 | 7.94478 | 192 ft | 58 kts | 249° |
| 2026-04-14 14:12 | 53.29066 | 7.93872 | 66 ft | 54 kts | 258° |
| 2026-04-14 14:12 | 53.28945 | 7.93363 | 39 ft | 41 kts | 252° |
| 2026-04-14 14:12 | 53.28871 | 7.93083 | 38 ft | 13 kts | 244° |
| 2026-04-14 14:13 | 53.28851 | 7.92987 | 37 ft | 3 kts | 316° |
| 2026-04-14 14:13 | 53.28875 | 7.93022 | 38 ft | 0 kts | 63° |
| 2026-04-14 14:13 | 53.28877 | 7.93028 | 38 ft | 4 kts | 66° |
| 2026-04-14 14:13 | 53.28901 | 7.93119 | 38 ft | 7 kts | 69° |
| 2026-04-14 14:14 | 53.28908 | 7.93145 | 37 ft | 1 kts | 63° |
| 2026-04-14 14:14 | 53.28909 | 7.93146 | 37 ft | 0 kts | 63° |